sensor_id;sensor_type;location;lat;lon;timestamp;temperature;humidity
30825;DHT22;17550;45.486;12.222;2023-05-07T00:01:49;18.20;99.90
30825;DHT22;17550;45.486;12.222;2023-05-07T00:04:15;18.20;99.90
30825;DHT22;17550;45.486;12.222;2023-05-07T00:06:41;18.20;99.90
30825;DHT22;17550;45.486;12.222;2023-05-07T00:09:06;18.20;99.90
30825;DHT22;17550;45.486;12.222;2023-05-07T00:11:32;18.20;99.90
30825;DHT22;17550;45.486;12.222;2023-05-07T00:13:58;18.20;99.90
30825;DHT22;17550;45.486;12.222;2023-05-07T00:16:24;18.10;99.90
30825;DHT22;17550;45.486;12.222;2023-05-07T00:18:50;18.10;99.90
30825;DHT22;17550;45.486;12.222;2023-05-07T00:21:16;18.10;99.90
30825;DHT22;17550;45.486;12.222;2023-05-07T00:23:41;17.90;99.90
30825;DHT22;17550;45.486;12.222;2023-05-07T00:26:07;17.90;99.90
30825;DHT22;17550;45.486;12.222;2023-05-07T00:28:33;17.90;99.90
30825;DHT22;17550;45.486;12.222;2023-05-07T00:30:59;17.90;99.90
30825;DHT22;17550;45.486;12.222;2023-05-07T00:33:25;17.90;99.90
30825;DHT22;17550;45.486;12.222;2023-05-07T00:35:52;17.90;99.90
30825;DHT22;17550;45.486;12.222;2023-05-07T00:38:17;17.90;99.90
30825;DHT22;17550;45.486;12.222;2023-05-07T00:40:43;17.90;99.90
30825;DHT22;17550;45.486;12.222;2023-05-07T00:43:09;17.90;99.90
30825;DHT22;17550;45.486;12.222;2023-05-07T00:45:34;17.90;99.90
30825;DHT22;17550;45.486;12.222;2023-05-07T00:48:01;17.90;99.90
30825;DHT22;17550;45.486;12.222;2023-05-07T00:50:28;17.90;99.90
30825;DHT22;17550;45.486;12.222;2023-05-07T00:52:54;17.90;99.90
30825;DHT22;17550;45.486;12.222;2023-05-07T00:55:22;17.90;99.90
30825;DHT22;17550;45.486;12.222;2023-05-07T00:57:50;17.90;99.90
30825;DHT22;17550;45.486;12.222;2023-05-07T01:00:16;17.80;99.90
30825;DHT22;17550;45.486;12.222;2023-05-07T01:02:43;17.80;99.90
30825;DHT22;17550;45.486;12.222;2023-05-07T01:05:13;17.80;99.90
30825;DHT22;17550;45.486;12.222;2023-05-07T01:07:40;17.80;99.90
30825;DHT22;17550;45.486;12.222;2023-05-07T01:10:08;17.80;99.90
30825;DHT22;17550;45.486;12.222;2023-05-07T01:12:35;17.90;99.90
30825;DHT22;17550;45.486;12.222;2023-05-07T01:15:03;17.90;99.90
30825;DHT22;17550;45.486;12.222;2023-05-07T01:17:32;17.90;99.90
30825;DHT22;17550;45.486;12.222;2023-05-07T01:19:58;17.90;99.90
30825;DHT22;17550;45.486;12.222;2023-05-07T01:22:37;17.80;99.90
30825;DHT22;17550;45.486;12.222;2023-05-07T01:25:04;17.80;99.90
30825;DHT22;17550;45.486;12.222;2023-05-07T01:27:31;17.70;99.90
30825;DHT22;17550;45.486;12.222;2023-05-07T01:29:59;17.70;99.90
30825;DHT22;17550;45.486;12.222;2023-05-07T01:32:33;17.70;99.90
30825;DHT22;17550;45.486;12.222;2023-05-07T01:35:02;17.70;99.90
30825;DHT22;17550;45.486;12.222;2023-05-07T01:37:29;17.70;99.90
30825;DHT22;17550;45.486;12.222;2023-05-07T01:39:55;17.70;99.90
30825;DHT22;17550;45.486;12.222;2023-05-07T01:42:21;17.70;99.90
30825;DHT22;17550;45.486;12.222;2023-05-07T01:44:47;17.60;99.90
30825;DHT22;17550;45.486;12.222;2023-05-07T01:47:13;17.60;99.90
30825;DHT22;17550;45.486;12.222;2023-05-07T01:49:40;17.60;99.90
30825;DHT22;17550;45.486;12.222;2023-05-07T01:52:06;17.60;99.90
30825;DHT22;17550;45.486;12.222;2023-05-07T01:54:32;17.60;99.90
30825;DHT22;17550;45.486;12.222;2023-05-07T01:56:58;17.60;99.90
30825;DHT22;17550;45.486;12.222;2023-05-07T01:59:23;17.60;99.90
30825;DHT22;17550;45.486;12.222;2023-05-07T02:01:49;17.60;99.90
30825;DHT22;17550;45.486;12.222;2023-05-07T02:04:15;17.50;99.90
30825;DHT22;17550;45.486;12.222;2023-05-07T02:06:40;17.50;99.90
30825;DHT22;17550;45.486;12.222;2023-05-07T02:09:06;17.50;99.90
30825;DHT22;17550;45.486;12.222;2023-05-07T02:11:32;17.50;99.90
30825;DHT22;17550;45.486;12.222;2023-05-07T02:13:58;17.50;99.90
30825;DHT22;17550;45.486;12.222;2023-05-07T02:16:24;17.50;99.90
30825;DHT22;17550;45.486;12.222;2023-05-07T02:18:49;17.40;99.90
30825;DHT22;17550;45.486;12.222;2023-05-07T02:21:15;17.40;99.90
30825;DHT22;17550;45.486;12.222;2023-05-07T02:23:41;17.30;99.90
30825;DHT22;17550;45.486;12.222;2023-05-07T02:26:07;17.30;99.90
30825;DHT22;17550;45.486;12.222;2023-05-07T02:28:32;17.30;99.90
30825;DHT22;17550;45.486;12.222;2023-05-07T02:31:03;17.30;99.90
30825;DHT22;17550;45.486;12.222;2023-05-07T02:33:29;17.30;99.90
30825;DHT22;17550;45.486;12.222;2023-05-07T02:35:56;17.20;99.90
30825;DHT22;17550;45.486;12.222;2023-05-07T02:38:22;17.20;99.90
30825;DHT22;17550;45.486;12.222;2023-05-07T02:40:48;17.20;99.90
30825;DHT22;17550;45.486;12.222;2023-05-07T02:43:14;17.10;99.90
30825;DHT22;17550;45.486;12.222;2023-05-07T02:45:39;17.10;99.90
30825;DHT22;17550;45.486;12.222;2023-05-07T02:48:05;17.10;99.90
30825;DHT22;17550;45.486;12.222;2023-05-07T02:50:31;17.10;99.90
30825;DHT22;17550;45.486;12.222;2023-05-07T02:52:58;17.10;99.90
30825;DHT22;17550;45.486;12.222;2023-05-07T02:55:24;17.10;99.90
30825;DHT22;17550;45.486;12.222;2023-05-07T02:57:49;17.10;99.90
30825;DHT22;17550;45.486;12.222;2023-05-07T03:00:17;17.10;99.90
30825;DHT22;17550;45.486;12.222;2023-05-07T03:02:44;17.20;99.90
30825;DHT22;17550;45.486;12.222;2023-05-07T03:05:10;17.10;99.90
30825;DHT22;17550;45.486;12.222;2023-05-07T03:07:37;17.10;99.90
30825;DHT22;17550;45.486;12.222;2023-05-07T03:10:04;17.00;99.90
30825;DHT22;17550;45.486;12.222;2023-05-07T03:12:30;17.00;99.90
30825;DHT22;17550;45.486;12.222;2023-05-07T03:14:56;17.00;99.90
30825;DHT22;17550;45.486;12.222;2023-05-07T03:17:22;17.00;99.90
30825;DHT22;17550;45.486;12.222;2023-05-07T03:19:48;17.00;99.90
30825;DHT22;17550;45.486;12.222;2023-05-07T03:22:14;17.00;99.90
30825;DHT22;17550;45.486;12.222;2023-05-07T03:24:40;17.10;99.90
30825;DHT22;17550;45.486;12.222;2023-05-07T03:27:06;17.00;99.90
30825;DHT22;17550;45.486;12.222;2023-05-07T03:29:32;17.00;99.90
30825;DHT22;17550;45.486;12.222;2023-05-07T03:31:58;17.00;99.90
30825;DHT22;17550;45.486;12.222;2023-05-07T03:34:23;17.00;99.90
30825;DHT22;17550;45.486;12.222;2023-05-07T03:36:49;17.00;99.90
30825;DHT22;17550;45.486;12.222;2023-05-07T03:39:15;17.00;99.90
30825;DHT22;17550;45.486;12.222;2023-05-07T03:41:41;16.90;99.90
30825;DHT22;17550;45.486;12.222;2023-05-07T03:44:06;16.90;99.90
30825;DHT22;17550;45.486;12.222;2023-05-07T03:46:33;16.80;99.90
30825;DHT22;17550;45.486;12.222;2023-05-07T03:48:59;16.80;99.90
30825;DHT22;17550;45.486;12.222;2023-05-07T03:51:25;16.80;99.90
30825;DHT22;17550;45.486;12.222;2023-05-07T03:53:51;16.80;99.90
30825;DHT22;17550;45.486;12.222;2023-05-07T03:56:19;16.70;99.90
30825;DHT22;17550;45.486;12.222;2023-05-07T03:58:47;16.70;99.90
30825;DHT22;17550;45.486;12.222;2023-05-07T04:01:12;16.60;99.90
30825;DHT22;17550;45.486;12.222;2023-05-07T04:03:38;16.60;99.90
30825;DHT22;17550;45.486;12.222;2023-05-07T04:06:04;16.60;99.90
30825;DHT22;17550;45.486;12.222;2023-05-07T04:08:30;16.60;99.90
30825;DHT22;17550;45.486;12.222;2023-05-07T04:10:56;16.60;99.90
30825;DHT22;17550;45.486;12.222;2023-05-07T04:13:22;16.70;99.90
30825;DHT22;17550;45.486;12.222;2023-05-07T04:15:48;16.80;99.90
30825;DHT22;17550;45.486;12.222;2023-05-07T04:18:14;17.00;99.90
30825;DHT22;17550;45.486;12.222;2023-05-07T04:20:41;17.20;99.90
30825;DHT22;17550;45.486;12.222;2023-05-07T04:23:07;17.40;99.90
30825;DHT22;17550;45.486;12.222;2023-05-07T04:25:33;17.50;99.90
30825;DHT22;17550;45.486;12.222;2023-05-07T04:27:59;17.80;99.90
30825;DHT22;17550;45.486;12.222;2023-05-07T04:30:24;18.10;99.90
30825;DHT22;17550;45.486;12.222;2023-05-07T04:32:51;18.30;99.90
30825;DHT22;17550;45.486;12.222;2023-05-07T04:35:17;18.40;99.90
30825;DHT22;17550;45.486;12.222;2023-05-07T04:37:43;18.40;99.90
30825;DHT22;17550;45.486;12.222;2023-05-07T04:40:08;18.40;99.90
30825;DHT22;17550;45.486;12.222;2023-05-07T04:42:34;18.30;99.90
30825;DHT22;17550;45.486;12.222;2023-05-07T04:45:01;18.40;99.90
30825;DHT22;17550;45.486;12.222;2023-05-07T04:47:29;18.50;99.90
30825;DHT22;17550;45.486;12.222;2023-05-07T04:49:55;18.70;99.90
30825;DHT22;17550;45.486;12.222;2023-05-07T04:52:20;19.10;99.90
30825;DHT22;17550;45.486;12.222;2023-05-07T04:54:46;19.40;99.90
30825;DHT22;17550;45.486;12.222;2023-05-07T04:57:12;19.50;99.90
30825;DHT22;17550;45.486;12.222;2023-05-07T04:59:37;19.50;99.90
30825;DHT22;17550;45.486;12.222;2023-05-07T05:02:03;19.40;99.90
30825;DHT22;17550;45.486;12.222;2023-05-07T05:04:30;19.30;99.90
30825;DHT22;17550;45.486;12.222;2023-05-07T05:06:55;19.30;99.90
30825;DHT22;17550;45.486;12.222;2023-05-07T05:09:21;19.90;99.90
30825;DHT22;17550;45.486;12.222;2023-05-07T05:11:47;20.60;99.90
30825;DHT22;17550;45.486;12.222;2023-05-07T05:14:13;20.80;99.90
30825;DHT22;17550;45.486;12.222;2023-05-07T05:16:38;20.70;99.90
30825;DHT22;17550;45.486;12.222;2023-05-07T05:19:04;20.70;99.90
30825;DHT22;17550;45.486;12.222;2023-05-07T05:21:31;21.00;99.90
30825;DHT22;17550;45.486;12.222;2023-05-07T05:23:58;21.60;99.90
30825;DHT22;17550;45.486;12.222;2023-05-07T05:26:23;22.00;99.90
30825;DHT22;17550;45.486;12.222;2023-05-07T05:28:49;22.30;99.90
30825;DHT22;17550;45.486;12.222;2023-05-07T05:31:16;22.00;99.90
30825;DHT22;17550;45.486;12.222;2023-05-07T05:33:42;22.00;99.90
30825;DHT22;17550;45.486;12.222;2023-05-07T05:36:09;21.90;99.90
30825;DHT22;17550;45.486;12.222;2023-05-07T05:38:36;21.70;99.90
30825;DHT22;17550;45.486;12.222;2023-05-07T05:41:02;21.60;99.90
30825;DHT22;17550;45.486;12.222;2023-05-07T05:43:27;21.50;99.90
30825;DHT22;17550;45.486;12.222;2023-05-07T05:45:54;21.10;99.90
30825;DHT22;17550;45.486;12.222;2023-05-07T05:48:20;21.10;99.90
30825;DHT22;17550;45.486;12.222;2023-05-07T05:50:46;21.00;99.90
30825;DHT22;17550;45.486;12.222;2023-05-07T05:53:12;21.20;99.90
30825;DHT22;17550;45.486;12.222;2023-05-07T05:55:37;21.10;99.90
30825;DHT22;17550;45.486;12.222;2023-05-07T05:58:03;20.80;99.90
30825;DHT22;17550;45.486;12.222;2023-05-07T06:00:29;20.70;99.90
30825;DHT22;17550;45.486;12.222;2023-05-07T06:02:55;20.60;99.90
30825;DHT22;17550;45.486;12.222;2023-05-07T06:05:21;20.60;99.90
30825;DHT22;17550;45.486;12.222;2023-05-07T06:07:47;20.70;99.90
30825;DHT22;17550;45.486;12.222;2023-05-07T06:10:12;20.70;99.90
30825;DHT22;17550;45.486;12.222;2023-05-07T06:12:38;20.80;99.90
30825;DHT22;17550;45.486;12.222;2023-05-07T06:15:04;20.80;99.90
30825;DHT22;17550;45.486;12.222;2023-05-07T06:17:30;21.00;99.90
30825;DHT22;17550;45.486;12.222;2023-05-07T06:19:56;20.90;99.90
30825;DHT22;17550;45.486;12.222;2023-05-07T06:22:21;21.00;99.90
30825;DHT22;17550;45.486;12.222;2023-05-07T06:24:47;21.10;99.90
30825;DHT22;17550;45.486;12.222;2023-05-07T06:27:13;21.10;99.90
30825;DHT22;17550;45.486;12.222;2023-05-07T06:29:38;21.20;99.90
30825;DHT22;17550;45.486;12.222;2023-05-07T06:32:12;21.30;99.90
30825;DHT22;17550;45.486;12.222;2023-05-07T06:34:39;21.50;99.90
30825;DHT22;17550;45.486;12.222;2023-05-07T06:37:06;21.50;99.90
30825;DHT22;17550;45.486;12.222;2023-05-07T06:39:32;21.50;99.90
30825;DHT22;17550;45.486;12.222;2023-05-07T06:42:00;21.70;99.90
30825;DHT22;17550;45.486;12.222;2023-05-07T06:44:25;21.70;99.90
30825;DHT22;17550;45.486;12.222;2023-05-07T06:46:51;21.70;99.90
30825;DHT22;17550;45.486;12.222;2023-05-07T06:49:17;21.80;99.90
30825;DHT22;17550;45.486;12.222;2023-05-07T06:51:43;21.90;99.90
30825;DHT22;17550;45.486;12.222;2023-05-07T06:54:08;22.00;99.90
30825;DHT22;17550;45.486;12.222;2023-05-07T06:56:34;22.10;99.90
30825;DHT22;17550;45.486;12.222;2023-05-07T06:59:01;22.20;99.90
30825;DHT22;17550;45.486;12.222;2023-05-07T07:01:27;22.00;99.90
30825;DHT22;17550;45.486;12.222;2023-05-07T07:03:53;22.10;99.90
30825;DHT22;17550;45.486;12.222;2023-05-07T07:06:19;22.20;99.90
30825;DHT22;17550;45.486;12.222;2023-05-07T07:08:44;22.20;99.90
30825;DHT22;17550;45.486;12.222;2023-05-07T07:11:11;22.30;99.90
30825;DHT22;17550;45.486;12.222;2023-05-07T07:13:36;22.50;99.90
30825;DHT22;17550;45.486;12.222;2023-05-07T07:16:02;22.60;99.90
30825;DHT22;17550;45.486;12.222;2023-05-07T07:18:28;22.60;99.90
30825;DHT22;17550;45.486;12.222;2023-05-07T07:20:54;22.50;99.90
30825;DHT22;17550;45.486;12.222;2023-05-07T07:23:20;22.40;99.90
30825;DHT22;17550;45.486;12.222;2023-05-07T07:25:46;22.40;99.90
30825;DHT22;17550;45.486;12.222;2023-05-07T07:28:12;22.50;99.90
30825;DHT22;17550;45.486;12.222;2023-05-07T07:30:39;22.60;99.90
30825;DHT22;17550;45.486;12.222;2023-05-07T07:33:05;22.80;99.90
30825;DHT22;17550;45.486;12.222;2023-05-07T07:35:34;22.50;99.90
30825;DHT22;17550;45.486;12.222;2023-05-07T07:38:00;22.60;99.90
30825;DHT22;17550;45.486;12.222;2023-05-07T07:40:27;22.70;99.90
30825;DHT22;17550;45.486;12.222;2023-05-07T07:42:53;22.90;99.90
30825;DHT22;17550;45.486;12.222;2023-05-07T07:45:19;22.80;99.90
30825;DHT22;17550;45.486;12.222;2023-05-07T07:47:45;22.90;99.90
30825;DHT22;17550;45.486;12.222;2023-05-07T07:50:11;23.10;99.90
30825;DHT22;17550;45.486;12.222;2023-05-07T07:52:39;23.40;99.90
30825;DHT22;17550;45.486;12.222;2023-05-07T07:55:05;23.60;99.90
30825;DHT22;17550;45.486;12.222;2023-05-07T07:57:31;23.80;99.90
30825;DHT22;17550;45.486;12.222;2023-05-07T07:59:56;24.20;99.80
30825;DHT22;17550;45.486;12.222;2023-05-07T08:02:22;24.10;99.20
30825;DHT22;17550;45.486;12.222;2023-05-07T08:04:48;24.10;99.50
30825;DHT22;17550;45.486;12.222;2023-05-07T08:07:13;24.30;99.30
30825;DHT22;17550;45.486;12.222;2023-05-07T08:09:40;24.50;99.20
30825;DHT22;17550;45.486;12.222;2023-05-07T08:12:06;24.80;98.70
30825;DHT22;17550;45.486;12.222;2023-05-07T08:14:33;24.80;98.30
30825;DHT22;17550;45.486;12.222;2023-05-07T08:16:59;24.90;98.10
30825;DHT22;17550;45.486;12.222;2023-05-07T08:19:24;24.70;97.90
30825;DHT22;17550;45.486;12.222;2023-05-07T08:21:50;24.50;98.20
30825;DHT22;17550;45.486;12.222;2023-05-07T08:24:17;24.70;98.00
30825;DHT22;17550;45.486;12.222;2023-05-07T08:26:43;24.80;97.90
30825;DHT22;17550;45.486;12.222;2023-05-07T08:29:09;24.90;98.00
30825;DHT22;17550;45.486;12.222;2023-05-07T08:31:35;24.90;98.00
30825;DHT22;17550;45.486;12.222;2023-05-07T08:34:01;25.10;97.80
30825;DHT22;17550;45.486;12.222;2023-05-07T08:36:27;25.30;97.20
30825;DHT22;17550;45.486;12.222;2023-05-07T08:38:54;25.50;97.20
30825;DHT22;17550;45.486;12.222;2023-05-07T08:41:20;25.80;96.90
30825;DHT22;17550;45.486;12.222;2023-05-07T08:43:50;25.80;96.80
30825;DHT22;17550;45.486;12.222;2023-05-07T08:46:19;25.50;96.30
30825;DHT22;17550;45.486;12.222;2023-05-07T08:48:48;25.30;96.50
30825;DHT22;17550;45.486;12.222;2023-05-07T08:51:19;25.30;96.50
30825;DHT22;17550;45.486;12.222;2023-05-07T08:53:47;25.20;96.30
30825;DHT22;17550;45.486;12.222;2023-05-07T08:56:14;25.00;96.60
30825;DHT22;17550;45.486;12.222;2023-05-07T08:58:41;25.00;96.30
30825;DHT22;17550;45.486;12.222;2023-05-07T09:01:09;25.10;96.40
30825;DHT22;17550;45.486;12.222;2023-05-07T09:03:37;25.20;96.60
30825;DHT22;17550;45.486;12.222;2023-05-07T09:06:03;25.20;96.50
30825;DHT22;17550;45.486;12.222;2023-05-07T09:08:29;25.40;96.30
30825;DHT22;17550;45.486;12.222;2023-05-07T09:10:55;25.60;96.30
30825;DHT22;17550;45.486;12.222;2023-05-07T09:13:21;25.70;95.60
30825;DHT22;17550;45.486;12.222;2023-05-07T09:15:47;25.50;96.00
30825;DHT22;17550;45.486;12.222;2023-05-07T09:18:13;25.30;95.90
30825;DHT22;17550;45.486;12.222;2023-05-07T09:20:39;25.00;95.80
30825;DHT22;17550;45.486;12.222;2023-05-07T09:23:06;24.90;96.00
30825;DHT22;17550;45.486;12.222;2023-05-07T09:25:33;24.80;95.20
30825;DHT22;17550;45.486;12.222;2023-05-07T09:28:03;25.10;95.20
30825;DHT22;17550;45.486;12.222;2023-05-07T09:30:32;25.40;95.10
30825;DHT22;17550;45.486;12.222;2023-05-07T09:33:00;25.70;94.30
30825;DHT22;17550;45.486;12.222;2023-05-07T09:35:26;25.90;94.00
30825;DHT22;17550;45.486;12.222;2023-05-07T09:37:59;26.20;93.70
30825;DHT22;17550;45.486;12.222;2023-05-07T09:40:27;26.40;93.50
30825;DHT22;17550;45.486;12.222;2023-05-07T09:42:53;26.40;93.00
30825;DHT22;17550;45.486;12.222;2023-05-07T09:45:28;26.30;93.40
30825;DHT22;17550;45.486;12.222;2023-05-07T09:47:58;26.40;93.00
30825;DHT22;17550;45.486;12.222;2023-05-07T09:50:29;26.30;92.30
30825;DHT22;17550;45.486;12.222;2023-05-07T09:52:56;26.00;92.50
30825;DHT22;17550;45.486;12.222;2023-05-07T09:55:22;26.00;92.60
30825;DHT22;17550;45.486;12.222;2023-05-07T09:57:53;26.10;92.00
30825;DHT22;17550;45.486;12.222;2023-05-07T10:00:19;26.20;92.20
30825;DHT22;17550;45.486;12.222;2023-05-07T10:02:49;26.40;91.80
30825;DHT22;17550;45.486;12.222;2023-05-07T10:05:16;26.50;91.50
30825;DHT22;17550;45.486;12.222;2023-05-07T10:07:44;26.10;91.50
30825;DHT22;17550;45.486;12.222;2023-05-07T10:10:10;26.10;91.40
30825;DHT22;17550;45.486;12.222;2023-05-07T10:12:36;26.00;91.20
30825;DHT22;17550;45.486;12.222;2023-05-07T10:15:08;26.10;91.20
30825;DHT22;17550;45.486;12.222;2023-05-07T10:17:38;26.20;90.80
30825;DHT22;17550;45.486;12.222;2023-05-07T10:20:05;26.00;91.10
30825;DHT22;17550;45.486;12.222;2023-05-07T10:22:43;26.00;91.00
30825;DHT22;17550;45.486;12.222;2023-05-07T10:25:22;26.00;91.30
30825;DHT22;17550;45.486;12.222;2023-05-07T10:27:49;26.10;90.90
30825;DHT22;17550;45.486;12.222;2023-05-07T10:30:24;26.30;90.80
30825;DHT22;17550;45.486;12.222;2023-05-07T10:32:55;26.10;90.60
30825;DHT22;17550;45.486;12.222;2023-05-07T10:35:24;26.10;90.90
30825;DHT22;17550;45.486;12.222;2023-05-07T10:37:51;26.20;90.90
30825;DHT22;17550;45.486;12.222;2023-05-07T10:40:17;26.30;90.90
30825;DHT22;17550;45.486;12.222;2023-05-07T10:42:59;26.40;91.20
30825;DHT22;17550;45.486;12.222;2023-05-07T10:45:26;26.20;90.60
30825;DHT22;17550;45.486;12.222;2023-05-07T10:48:13;26.10;90.90
30825;DHT22;17550;45.486;12.222;2023-05-07T10:50:41;26.10;91.20
30825;DHT22;17550;45.486;12.222;2023-05-07T10:55:45;26.50;90.30
30825;DHT22;17550;45.486;12.222;2023-05-07T11:00:47;26.60;90.40
30825;DHT22;17550;45.486;12.222;2023-05-07T11:03:13;26.70;90.10
30825;DHT22;17550;45.486;12.222;2023-05-07T11:05:40;26.60;89.00
30825;DHT22;17550;45.486;12.222;2023-05-07T11:08:07;26.50;89.10
30825;DHT22;17550;45.486;12.222;2023-05-07T11:10:52;26.80;89.00
30825;DHT22;17550;45.486;12.222;2023-05-07T11:13:18;27.20;88.70
30825;DHT22;17550;45.486;12.222;2023-05-07T11:16:04;27.70;88.10
30825;DHT22;17550;45.486;12.222;2023-05-07T11:18:49;28.00;88.10
30825;DHT22;17550;45.486;12.222;2023-05-07T11:21:54;28.20;87.70
30825;DHT22;17550;45.486;12.222;2023-05-07T11:24:20;28.30;87.00
30825;DHT22;17550;45.486;12.222;2023-05-07T11:26:50;28.40;86.80
30825;DHT22;17550;45.486;12.222;2023-05-07T11:29:18;28.40;86.80
30825;DHT22;17550;45.486;12.222;2023-05-07T11:31:49;28.50;87.20
30825;DHT22;17550;45.486;12.222;2023-05-07T11:34:15;28.60;86.10
30825;DHT22;17550;45.486;12.222;2023-05-07T11:36:47;28.60;86.80
30825;DHT22;17550;45.486;12.222;2023-05-07T11:39:26;28.40;85.90
30825;DHT22;17550;45.486;12.222;2023-05-07T11:41:52;28.20;86.80
30825;DHT22;17550;45.486;12.222;2023-05-07T11:44:17;28.10;86.90
30825;DHT22;17550;45.486;12.222;2023-05-07T11:46:43;28.20;87.00
30825;DHT22;17550;45.486;12.222;2023-05-07T11:49:10;28.20;86.80
30825;DHT22;17550;45.486;12.222;2023-05-07T11:51:36;28.40;86.90
30825;DHT22;17550;45.486;12.222;2023-05-07T11:54:03;28.50;86.70
30825;DHT22;17550;45.486;12.222;2023-05-07T11:56:34;28.60;86.30
30825;DHT22;17550;45.486;12.222;2023-05-07T11:59:00;28.60;86.50
30825;DHT22;17550;45.486;12.222;2023-05-07T12:01:26;28.50;86.40
30825;DHT22;17550;45.486;12.222;2023-05-07T12:03:52;28.30;87.40
30825;DHT22;17550;45.486;12.222;2023-05-07T12:06:19;28.20;87.50
30825;DHT22;17550;45.486;12.222;2023-05-07T12:08:45;28.00;88.60
30825;DHT22;17550;45.486;12.222;2023-05-07T12:11:16;28.20;88.80
30825;DHT22;17550;45.486;12.222;2023-05-07T12:13:47;28.20;88.20
30825;DHT22;17550;45.486;12.222;2023-05-07T12:16:13;28.20;88.10
30825;DHT22;17550;45.486;12.222;2023-05-07T12:18:40;28.10;87.80
30825;DHT22;17550;45.486;12.222;2023-05-07T12:21:06;28.00;88.60
30825;DHT22;17550;45.486;12.222;2023-05-07T12:23:34;28.00;88.60
30825;DHT22;17550;45.486;12.222;2023-05-07T12:26:01;28.00;88.90
30825;DHT22;17550;45.486;12.222;2023-05-07T12:28:27;28.20;89.20
30825;DHT22;17550;45.486;12.222;2023-05-07T12:30:53;28.30;86.70
30825;DHT22;17550;45.486;12.222;2023-05-07T12:33:24;28.60;86.60
30825;DHT22;17550;45.486;12.222;2023-05-07T12:35:50;28.60;84.90
30825;DHT22;17550;45.486;12.222;2023-05-07T12:38:17;28.60;85.10
30825;DHT22;17550;45.486;12.222;2023-05-07T12:40:47;28.30;85.40
30825;DHT22;17550;45.486;12.222;2023-05-07T12:43:20;28.40;85.90
30825;DHT22;17550;45.486;12.222;2023-05-07T12:45:48;28.60;86.30
30825;DHT22;17550;45.486;12.222;2023-05-07T12:48:14;28.90;85.90
30825;DHT22;17550;45.486;12.222;2023-05-07T12:50:40;28.90;86.40
30825;DHT22;17550;45.486;12.222;2023-05-07T12:53:07;29.00;85.90
30825;DHT22;17550;45.486;12.222;2023-05-07T12:55:44;29.10;84.60
30825;DHT22;17550;45.486;12.222;2023-05-07T12:58:18;29.10;84.30
30825;DHT22;17550;45.486;12.222;2023-05-07T13:00:44;29.20;83.80
30825;DHT22;17550;45.486;12.222;2023-05-07T13:03:11;29.10;83.60
30825;DHT22;17550;45.486;12.222;2023-05-07T13:05:37;29.10;83.70
30825;DHT22;17550;45.486;12.222;2023-05-07T13:08:02;29.20;83.50
30825;DHT22;17550;45.486;12.222;2023-05-07T13:10:28;29.20;83.00
30825;DHT22;17550;45.486;12.222;2023-05-07T13:12:54;29.10;82.00
30825;DHT22;17550;45.486;12.222;2023-05-07T13:15:20;29.00;83.00
30825;DHT22;17550;45.486;12.222;2023-05-07T13:17:47;28.70;83.30
30825;DHT22;17550;45.486;12.222;2023-05-07T13:20:12;28.10;83.60
30825;DHT22;17550;45.486;12.222;2023-05-07T13:22:39;27.90;84.30
30825;DHT22;17550;45.486;12.222;2023-05-07T13:25:05;28.10;84.70
30825;DHT22;17550;45.486;12.222;2023-05-07T13:27:31;28.20;83.30
30825;DHT22;17550;45.486;12.222;2023-05-07T13:29:57;28.20;84.00
30825;DHT22;17550;45.486;12.222;2023-05-07T13:32:23;28.40;83.80
30825;DHT22;17550;45.486;12.222;2023-05-07T13:34:49;28.60;83.60
30825;DHT22;17550;45.486;12.222;2023-05-07T13:37:14;28.50;82.80
30825;DHT22;17550;45.486;12.222;2023-05-07T13:39:40;28.30;83.00
30825;DHT22;17550;45.486;12.222;2023-05-07T13:42:10;27.70;83.90
30825;DHT22;17550;45.486;12.222;2023-05-07T13:44:35;27.30;84.80
30825;DHT22;17550;45.486;12.222;2023-05-07T13:47:01;27.20;84.90
30825;DHT22;17550;45.486;12.222;2023-05-07T13:49:27;27.20;85.10
30825;DHT22;17550;45.486;12.222;2023-05-07T13:51:53;27.30;85.40
30825;DHT22;17550;45.486;12.222;2023-05-07T13:54:18;27.20;85.30
30825;DHT22;17550;45.486;12.222;2023-05-07T13:56:44;27.10;87.50
30825;DHT22;17550;45.486;12.222;2023-05-07T13:59:10;26.90;87.40
30825;DHT22;17550;45.486;12.222;2023-05-07T14:01:35;26.90;87.70
30825;DHT22;17550;45.486;12.222;2023-05-07T14:04:01;26.90;87.00
30825;DHT22;17550;45.486;12.222;2023-05-07T14:06:27;27.00;87.60
30825;DHT22;17550;45.486;12.222;2023-05-07T14:08:52;27.10;87.60
30825;DHT22;17550;45.486;12.222;2023-05-07T14:11:18;27.00;88.00
30825;DHT22;17550;45.486;12.222;2023-05-07T14:13:44;27.10;88.30
30825;DHT22;17550;45.486;12.222;2023-05-07T14:16:10;27.30;88.00
30825;DHT22;17550;45.486;12.222;2023-05-07T14:18:35;27.40;86.20
30825;DHT22;17550;45.486;12.222;2023-05-07T14:21:02;27.30;86.50
30825;DHT22;17550;45.486;12.222;2023-05-07T14:23:28;27.20;86.50
30825;DHT22;17550;45.486;12.222;2023-05-07T14:25:54;27.20;86.40
30825;DHT22;17550;45.486;12.222;2023-05-07T14:28:21;27.10;86.30
30825;DHT22;17550;45.486;12.222;2023-05-07T14:30:48;27.10;85.90
30825;DHT22;17550;45.486;12.222;2023-05-07T14:33:13;26.80;86.00
30825;DHT22;17550;45.486;12.222;2023-05-07T14:35:39;26.70;86.40
30825;DHT22;17550;45.486;12.222;2023-05-07T14:38:05;26.60;87.40
30825;DHT22;17550;45.486;12.222;2023-05-07T14:40:30;26.60;87.70
30825;DHT22;17550;45.486;12.222;2023-05-07T14:42:56;26.60;86.80
30825;DHT22;17550;45.486;12.222;2023-05-07T14:45:23;26.50;88.40
30825;DHT22;17550;45.486;12.222;2023-05-07T14:47:48;26.60;86.80
30825;DHT22;17550;45.486;12.222;2023-05-07T14:50:14;26.70;87.80
30825;DHT22;17550;45.486;12.222;2023-05-07T14:52:40;26.70;87.40
30825;DHT22;17550;45.486;12.222;2023-05-07T14:55:06;26.70;87.00
30825;DHT22;17550;45.486;12.222;2023-05-07T14:57:32;26.90;88.50
30825;DHT22;17550;45.486;12.222;2023-05-07T15:00:01;27.10;86.90
30825;DHT22;17550;45.486;12.222;2023-05-07T15:02:27;27.30;86.50
30825;DHT22;17550;45.486;12.222;2023-05-07T15:04:52;27.10;85.00
30825;DHT22;17550;45.486;12.222;2023-05-07T15:07:18;27.00;85.70
30825;DHT22;17550;45.486;12.222;2023-05-07T15:09:44;27.10;86.20
30825;DHT22;17550;45.486;12.222;2023-05-07T15:12:11;27.00;85.10
30825;DHT22;17550;45.486;12.222;2023-05-07T15:14:37;26.80;86.40
30825;DHT22;17550;45.486;12.222;2023-05-07T15:17:03;26.70;86.00
30825;DHT22;17550;45.486;12.222;2023-05-07T15:19:29;26.60;86.90